Aérodrome :
LOGIN :

S'inscrire | Disclaimer

   EN    FR    IT 

 










Légende :    VFR   VFR Marginal   IFR   IFR Intensif   IFR Très Intensif
Visi : 
Plafond : 
>= 8 km
>= 3000ft
5 à 8 km
1000 à 3000 ft
1500m à 5 km
500 à 1000 ft
800 à 1500m
200 à 500 ft
< 800m
< 200 ft
Symboles :   Orages  Brouillard  Fortes neiges  Fortes précipitations  Vent > 20 kt
SIGMETs :   Divers  Orages  Givrage  Turbulence  Onde Orograph.  Cendres Volcan.







- Altitude de l'aérodrome : 65 ft
- Code IATA : PIK
- Voir les cartes d'approche


EGPK - Glasgow Prestwick

DERNIER METAR :
  • 191550Z 18009KT 8000 -RA FEW020 SCT040 08/05 Q1010

METARs EXPIRÉS :
  • 191520Z 18010KT 9999 FEW020 SCT040 08/05 Q1010
  • 191450Z 19010KT 9999 FEW018 SCT035 08/05 Q1011
  • 191420Z 18010KT 9999 FEW020 SCT037 08/04 Q1011
  • 191350Z 19010KT 9999 FEW020 SCT037 08/05 Q1011

TAF TAF EGPK
Valide du 19 à 12h jusqu'au 20 à 12h UTC


191103Z 1912/2012 25012KT 9999 FEW018 SCT035
BECMG 1912/1915 19012KT
PROB30
TEMPO 1912/1916 8000 -RA
TEMPO 1916/2009 6000 RA BKN012
PROB40
TEMPO 1921/2004 20015G25KT 3000 +RA BKN008
TEMPO 2009/2012 21018G28KT 8000 -RA BKN010
Pas de NOTAMs connus pour ce terrain.



MET'MAP, la Météo Aéronautique d'un coup d'oeil ! - Copyright ORBIFLY Décembre 2007 - Disclaimer

ORBIFLY MET'MAP TEAM :

Programmation & Développement : Alexandra Zaïnal
Conception & Développement : Baudouin d'Aumeries
Co-Programmation & Développement : Marc-Olivier Méhu
Soutien technique & logistique : Manuel Goepfert

Contact : metmap@orbifly.com




SOURCES & CREDITS :

   NOAA